Keeling, Virginia
Current Conditions -  °F | °C
As of 12:53 PM on Monday 22 Dec 2014 (Local Time) from KDAN Reporting Station
Haze Haze  
Wind Chill: 29°   Ceiling: 600
Heat Index: 37°   Visibility: 3mi
Dew Point: 33°   Wind: 13mph
Humidity: 86%   Direction: 30°NNE
Pressure: 30.14"   Gusts: NA
Location:  36.73°N, 79.3°W
Report Text: KDAN 221753Z AUTO 03011KT 3SM BR OVC006 03/01 A3014 RMK AO2 CIG 003V009 SLP203 P0001 60003 T00280006 10028 20017 58022
Loading
Personal Weather Stations






























Interactive Weather Map New forecast layout! Learn more

10-Day Weather Forecast

Advertisements
Track Severe Weather on mobile